sensor_id;sensor_type;location;lat;lon;timestamp;P1;durP1;ratioP1;P2;durP2;ratioP2
19038;SDS011;9652;49.014;12.052;2022-10-30T00:01:50;5.03;;;4.23;;
19038;SDS011;9652;49.014;12.052;2022-10-30T00:04:17;5.07;;;4.00;;
19038;SDS011;9652;49.014;12.052;2022-10-30T00:06:44;6.20;;;4.63;;
19038;SDS011;9652;49.014;12.052;2022-10-30T00:09:12;7.30;;;4.40;;
19038;SDS011;9652;49.014;12.052;2022-10-30T00:11:39;7.20;;;4.53;;
19038;SDS011;9652;49.014;12.052;2022-10-30T00:14:06;5.50;;;4.70;;
19038;SDS011;9652;49.014;12.052;2022-10-30T00:16:34;7.10;;;4.70;;
19038;SDS011;9652;49.014;12.052;2022-10-30T00:19:02;8.13;;;4.47;;
19038;SDS011;9652;49.014;12.052;2022-10-30T00:21:30;4.33;;;3.77;;
19038;SDS011;9652;49.014;12.052;2022-10-30T00:23:57;9.47;;;4.23;;
19038;SDS011;9652;49.014;12.052;2022-10-30T00:26:24;4.67;;;3.77;;
19038;SDS011;9652;49.014;12.052;2022-10-30T00:28:52;6.93;;;4.50;;
19038;SDS011;9652;49.014;12.052;2022-10-30T00:31:21;6.23;;;4.57;;
19038;SDS011;9652;49.014;12.052;2022-10-30T00:33:49;5.93;;;3.97;;
19038;SDS011;9652;49.014;12.052;2022-10-30T00:36:18;4.63;;;3.97;;
19038;SDS011;9652;49.014;12.052;2022-10-30T00:38:47;5.07;;;4.13;;
19038;SDS011;9652;49.014;12.052;2022-10-30T00:41:14;7.00;;;4.20;;
19038;SDS011;9652;49.014;12.052;2022-10-30T00:43:44;6.87;;;4.40;;
19038;SDS011;9652;49.014;12.052;2022-10-30T00:46:14;5.50;;;4.73;;
19038;SDS011;9652;49.014;12.052;2022-10-30T00:48:48;6.93;;;4.20;;
19038;SDS011;9652;49.014;12.052;2022-10-30T00:51:21;5.60;;;4.37;;
19038;SDS011;9652;49.014;12.052;2022-10-30T00:53:50;5.53;;;4.57;;
19038;SDS011;9652;49.014;12.052;2022-10-30T00:56:20;4.63;;;4.13;;
19038;SDS011;9652;49.014;12.052;2022-10-30T00:58:51;4.70;;;3.87;;
19038;SDS011;9652;49.014;12.052;2022-10-30T01:01:25;4.77;;;4.17;;
19038;SDS011;9652;49.014;12.052;2022-10-30T01:03:58;5.27;;;4.20;;
19038;SDS011;9652;49.014;12.052;2022-10-30T01:06:31;6.00;;;4.63;;
19038;SDS011;9652;49.014;12.052;2022-10-30T01:09:03;6.30;;;4.00;;
19038;SDS011;9652;49.014;12.052;2022-10-30T01:11:30;9.27;;;4.47;;
19038;SDS011;9652;49.014;12.052;2022-10-30T01:13:58;7.13;;;4.23;;
19038;SDS011;9652;49.014;12.052;2022-10-30T01:16:38;5.73;;;4.10;;
19038;SDS011;9652;49.014;12.052;2022-10-30T01:19:28;5.67;;;4.03;;
19038;SDS011;9652;49.014;12.052;2022-10-30T01:22:11;8.70;;;4.27;;
19038;SDS011;9652;49.014;12.052;2022-10-30T01:25:03;4.83;;;3.93;;
19038;SDS011;9652;49.014;12.052;2022-10-30T01:27:56;5.90;;;4.43;;
19038;SDS011;9652;49.014;12.052;2022-10-30T01:30:42;5.40;;;3.67;;
19038;SDS011;9652;49.014;12.052;2022-10-30T01:33:31;4.87;;;3.90;;
19038;SDS011;9652;49.014;12.052;2022-10-30T01:36:20;6.90;;;4.67;;
19038;SDS011;9652;49.014;12.052;2022-10-30T01:38:57;6.73;;;4.27;;
19038;SDS011;9652;49.014;12.052;2022-10-30T01:41:28;7.57;;;4.20;;
19038;SDS011;9652;49.014;12.052;2022-10-30T01:43:58;5.80;;;4.50;;
19038;SDS011;9652;49.014;12.052;2022-10-30T01:46:57;5.17;;;4.10;;
19038;SDS011;9652;49.014;12.052;2022-10-30T01:50:00;6.03;;;4.27;;
19038;SDS011;9652;49.014;12.052;2022-10-30T01:52:48;5.90;;;4.30;;
19038;SDS011;9652;49.014;12.052;2022-10-30T01:55:30;4.43;;;3.47;;
19038;SDS011;9652;49.014;12.052;2022-10-30T01:58:11;4.57;;;3.97;;
19038;SDS011;9652;49.014;12.052;2022-10-30T02:00:51;4.30;;;3.90;;
19038;SDS011;9652;49.014;12.052;2022-10-30T02:03:21;7.83;;;4.20;;
19038;SDS011;9652;49.014;12.052;2022-10-30T02:05:50;5.03;;;3.80;;
19038;SDS011;9652;49.014;12.052;2022-10-30T02:08:19;4.23;;;3.83;;
19038;SDS011;9652;49.014;12.052;2022-10-30T02:10:50;7.27;;;3.97;;
19038;SDS011;9652;49.014;12.052;2022-10-30T02:13:30;6.23;;;5.00;;
19038;SDS011;9652;49.014;12.052;2022-10-30T02:15:58;4.10;;;3.70;;
19038;SDS011;9652;49.014;12.052;2022-10-30T02:18:26;6.40;;;4.33;;
19038;SDS011;9652;49.014;12.052;2022-10-30T02:20:55;5.00;;;3.93;;
19038;SDS011;9652;49.014;12.052;2022-10-30T02:23:22;5.53;;;4.10;;
19038;SDS011;9652;49.014;12.052;2022-10-30T02:25:50;5.00;;;4.17;;
19038;SDS011;9652;49.014;12.052;2022-10-30T02:28:17;5.30;;;4.17;;
19038;SDS011;9652;49.014;12.052;2022-10-30T02:30:44;4.73;;;4.17;;
19038;SDS011;9652;49.014;12.052;2022-10-30T02:33:11;4.67;;;4.10;;
19038;SDS011;9652;49.014;12.052;2022-10-30T02:35:39;6.27;;;4.40;;
19038;SDS011;9652;49.014;12.052;2022-10-30T02:38:08;5.23;;;4.27;;
19038;SDS011;9652;49.014;12.052;2022-10-30T02:40:35;5.27;;;4.23;;
19038;SDS011;9652;49.014;12.052;2022-10-30T02:43:02;4.53;;;3.87;;
19038;SDS011;9652;49.014;12.052;2022-10-30T02:45:29;6.87;;;4.33;;
19038;SDS011;9652;49.014;12.052;2022-10-30T02:47:57;6.77;;;3.90;;
19038;SDS011;9652;49.014;12.052;2022-10-30T02:50:25;4.60;;;3.97;;
19038;SDS011;9652;49.014;12.052;2022-10-30T02:52:53;4.63;;;4.10;;
19038;SDS011;9652;49.014;12.052;2022-10-30T02:55:22;5.23;;;4.00;;
19038;SDS011;9652;49.014;12.052;2022-10-30T02:57:51;5.03;;;3.93;;
19038;SDS011;9652;49.014;12.052;2022-10-30T03:00:19;6.40;;;4.23;;
19038;SDS011;9652;49.014;12.052;2022-10-30T03:02:46;6.37;;;4.83;;
19038;SDS011;9652;49.014;12.052;2022-10-30T03:05:14;7.43;;;4.20;;
19038;SDS011;9652;49.014;12.052;2022-10-30T03:07:41;8.87;;;4.40;;
19038;SDS011;9652;49.014;12.052;2022-10-30T03:10:08;5.97;;;4.80;;
19038;SDS011;9652;49.014;12.052;2022-10-30T03:12:36;6.57;;;4.00;;
19038;SDS011;9652;49.014;12.052;2022-10-30T03:15:04;6.60;;;3.77;;
19038;SDS011;9652;49.014;12.052;2022-10-30T03:17:34;5.30;;;3.97;;
19038;SDS011;9652;49.014;12.052;2022-10-30T03:20:01;5.33;;;3.93;;
19038;SDS011;9652;49.014;12.052;2022-10-30T03:22:28;7.30;;;4.63;;
19038;SDS011;9652;49.014;12.052;2022-10-30T03:24:55;4.93;;;4.10;;
19038;SDS011;9652;49.014;12.052;2022-10-30T03:27:22;5.43;;;4.03;;
19038;SDS011;9652;49.014;12.052;2022-10-30T03:29:51;6.73;;;4.13;;
19038;SDS011;9652;49.014;12.052;2022-10-30T03:32:18;7.20;;;4.07;;
19038;SDS011;9652;49.014;12.052;2022-10-30T03:34:50;8.43;;;4.60;;
19038;SDS011;9652;49.014;12.052;2022-10-30T03:37:17;5.13;;;3.70;;
19038;SDS011;9652;49.014;12.052;2022-10-30T03:39:45;5.77;;;3.90;;
19038;SDS011;9652;49.014;12.052;2022-10-30T03:42:12;5.33;;;4.33;;
19038;SDS011;9652;49.014;12.052;2022-10-30T03:44:39;6.23;;;4.37;;
19038;SDS011;9652;49.014;12.052;2022-10-30T03:47:08;4.00;;;3.47;;
19038;SDS011;9652;49.014;12.052;2022-10-30T03:49:41;7.63;;;4.93;;
19038;SDS011;9652;49.014;12.052;2022-10-30T03:52:11;4.20;;;3.70;;
19038;SDS011;9652;49.014;12.052;2022-10-30T03:54:38;6.77;;;4.30;;
19038;SDS011;9652;49.014;12.052;2022-10-30T03:57:07;4.47;;;4.07;;
19038;SDS011;9652;49.014;12.052;2022-10-30T03:59:42;6.30;;;4.00;;
19038;SDS011;9652;49.014;12.052;2022-10-30T04:02:29;7.00;;;4.20;;
19038;SDS011;9652;49.014;12.052;2022-10-30T04:04:56;6.27;;;4.40;;
19038;SDS011;9652;49.014;12.052;2022-10-30T04:07:24;5.27;;;3.87;;
19038;SDS011;9652;49.014;12.052;2022-10-30T04:09:51;4.97;;;4.47;;
19038;SDS011;9652;49.014;12.052;2022-10-30T04:12:19;4.20;;;3.77;;
19038;SDS011;9652;49.014;12.052;2022-10-30T04:14:46;6.43;;;4.53;;
19038;SDS011;9652;49.014;12.052;2022-10-30T04:17:13;7.63;;;4.00;;
19038;SDS011;9652;49.014;12.052;2022-10-30T04:19:41;7.33;;;4.83;;
19038;SDS011;9652;49.014;12.052;2022-10-30T04:25:21;5.90;;;4.57;;
19038;SDS011;9652;49.014;12.052;2022-10-30T04:27:49;9.27;;;4.17;;
19038;SDS011;9652;49.014;12.052;2022-10-30T04:30:17;4.90;;;4.40;;
19038;SDS011;9652;49.014;12.052;2022-10-30T04:32:46;4.87;;;4.33;;
19038;SDS011;9652;49.014;12.052;2022-10-30T04:35:16;6.33;;;4.53;;
19038;SDS011;9652;49.014;12.052;2022-10-30T04:37:50;6.23;;;4.67;;
19038;SDS011;9652;49.014;12.052;2022-10-30T04:40:19;5.17;;;3.87;;
19038;SDS011;9652;49.014;12.052;2022-10-30T04:42:53;5.27;;;4.20;;
19038;SDS011;9652;49.014;12.052;2022-10-30T04:45:21;5.80;;;4.23;;
19038;SDS011;9652;49.014;12.052;2022-10-30T04:47:48;8.77;;;5.10;;
19038;SDS011;9652;49.014;12.052;2022-10-30T04:50:17;7.07;;;4.20;;
19038;SDS011;9652;49.014;12.052;2022-10-30T04:52:44;7.60;;;4.23;;
19038;SDS011;9652;49.014;12.052;2022-10-30T04:55:12;8.60;;;4.57;;
19038;SDS011;9652;49.014;12.052;2022-10-30T04:57:41;7.47;;;4.23;;
19038;SDS011;9652;49.014;12.052;2022-10-30T05:00:09;5.93;;;4.90;;
19038;SDS011;9652;49.014;12.052;2022-10-30T05:02:37;6.47;;;4.40;;
19038;SDS011;9652;49.014;12.052;2022-10-30T05:05:04;6.40;;;5.23;;
19038;SDS011;9652;49.014;12.052;2022-10-30T05:07:33;6.63;;;4.13;;
19038;SDS011;9652;49.014;12.052;2022-10-30T05:10:01;5.70;;;4.77;;
19038;SDS011;9652;49.014;12.052;2022-10-30T05:12:28;5.47;;;4.00;;
19038;SDS011;9652;49.014;12.052;2022-10-30T05:14:55;8.93;;;4.63;;
19038;SDS011;9652;49.014;12.052;2022-10-30T05:17:22;6.37;;;4.63;;
19038;SDS011;9652;49.014;12.052;2022-10-30T05:19:49;9.70;;;4.87;;
19038;SDS011;9652;49.014;12.052;2022-10-30T05:22:16;5.87;;;4.53;;
19038;SDS011;9652;49.014;12.052;2022-10-30T05:24:45;8.20;;;5.13;;
19038;SDS011;9652;49.014;12.052;2022-10-30T05:27:14;6.47;;;4.60;;
19038;SDS011;9652;49.014;12.052;2022-10-30T05:29:41;5.77;;;4.60;;
19038;SDS011;9652;49.014;12.052;2022-10-30T05:32:08;4.80;;;4.40;;
19038;SDS011;9652;49.014;12.052;2022-10-30T05:34:38;5.37;;;4.63;;
19038;SDS011;9652;49.014;12.052;2022-10-30T05:37:05;7.80;;;4.40;;
19038;SDS011;9652;49.014;12.052;2022-10-30T05:39:33;6.97;;;5.00;;
19038;SDS011;9652;49.014;12.052;2022-10-30T05:42:03;6.70;;;4.30;;
19038;SDS011;9652;49.014;12.052;2022-10-30T05:44:39;5.67;;;4.47;;
19038;SDS011;9652;49.014;12.052;2022-10-30T05:47:07;6.40;;;4.80;;
19038;SDS011;9652;49.014;12.052;2022-10-30T05:49:36;5.03;;;4.13;;
19038;SDS011;9652;49.014;12.052;2022-10-30T05:52:12;5.47;;;4.50;;
19038;SDS011;9652;49.014;12.052;2022-10-30T05:54:40;5.80;;;4.37;;
19038;SDS011;9652;49.014;12.052;2022-10-30T05:57:26;5.10;;;4.17;;
19038;SDS011;9652;49.014;12.052;2022-10-30T05:59:54;7.47;;;5.07;;
19038;SDS011;9652;49.014;12.052;2022-10-30T06:02:21;7.20;;;4.90;;
19038;SDS011;9652;49.014;12.052;2022-10-30T06:04:49;9.47;;;5.20;;
19038;SDS011;9652;49.014;12.052;2022-10-30T06:07:18;7.47;;;4.47;;
19038;SDS011;9652;49.014;12.052;2022-10-30T06:09:45;7.23;;;4.47;;
19038;SDS011;9652;49.014;12.052;2022-10-30T06:12:32;5.30;;;4.43;;
19038;SDS011;9652;49.014;12.052;2022-10-30T06:15:20;5.50;;;4.67;;
19038;SDS011;9652;49.014;12.052;2022-10-30T06:17:47;5.87;;;4.97;;
19038;SDS011;9652;49.014;12.052;2022-10-30T06:20:24;7.40;;;4.53;;
19038;SDS011;9652;49.014;12.052;2022-10-30T06:22:57;6.57;;;3.93;;
19038;SDS011;9652;49.014;12.052;2022-10-30T06:25:39;5.20;;;4.33;;
19038;SDS011;9652;49.014;12.052;2022-10-30T06:28:28;4.50;;;4.03;;
19038;SDS011;9652;49.014;12.052;2022-10-30T06:30:55;6.17;;;4.27;;
19038;SDS011;9652;49.014;12.052;2022-10-30T06:33:23;6.63;;;5.57;;
19038;SDS011;9652;49.014;12.052;2022-10-30T06:35:50;5.77;;;5.17;;
19038;SDS011;9652;49.014;12.052;2022-10-30T06:38:18;7.37;;;4.73;;
19038;SDS011;9652;49.014;12.052;2022-10-30T06:40:47;7.00;;;5.13;;
19038;SDS011;9652;49.014;12.052;2022-10-30T06:43:42;8.00;;;4.90;;
19038;SDS011;9652;49.014;12.052;2022-10-30T06:46:19;8.40;;;5.27;;
19038;SDS011;9652;49.014;12.052;2022-10-30T06:48:47;6.03;;;5.23;;
19038;SDS011;9652;49.014;12.052;2022-10-30T06:51:16;6.30;;;4.33;;
19038;SDS011;9652;49.014;12.052;2022-10-30T06:53:44;7.53;;;4.90;;
19038;SDS011;9652;49.014;12.052;2022-10-30T06:56:30;6.47;;;4.50;;
19038;SDS011;9652;49.014;12.052;2022-10-30T06:59:12;8.47;;;5.10;;
19038;SDS011;9652;49.014;12.052;2022-10-30T07:01:44;8.67;;;4.90;;
19038;SDS011;9652;49.014;12.052;2022-10-30T07:04:16;8.13;;;5.07;;
19038;SDS011;9652;49.014;12.052;2022-10-30T07:06:43;6.37;;;5.07;;
19038;SDS011;9652;49.014;12.052;2022-10-30T07:09:10;4.93;;;4.00;;
19038;SDS011;9652;49.014;12.052;2022-10-30T07:11:38;4.90;;;4.43;;
19038;SDS011;9652;49.014;12.052;2022-10-30T07:14:17;9.00;;;4.83;;
19038;SDS011;9652;49.014;12.052;2022-10-30T07:16:59;6.47;;;4.87;;
19038;SDS011;9652;49.014;12.052;2022-10-30T07:19:28;6.73;;;4.90;;
19038;SDS011;9652;49.014;12.052;2022-10-30T07:21:56;7.13;;;4.97;;
19038;SDS011;9652;49.014;12.052;2022-10-30T07:24:23;9.03;;;5.30;;
19038;SDS011;9652;49.014;12.052;2022-10-30T07:27:08;7.07;;;5.40;;
19038;SDS011;9652;49.014;12.052;2022-10-30T07:29:55;5.47;;;4.73;;
19038;SDS011;9652;49.014;12.052;2022-10-30T07:32:32;7.27;;;4.73;;
19038;SDS011;9652;49.014;12.052;2022-10-30T07:35:19;5.17;;;4.67;;
19038;SDS011;9652;49.014;12.052;2022-10-30T07:38:25;7.17;;;4.90;;
19038;SDS011;9652;49.014;12.052;2022-10-30T07:40:59;5.73;;;4.33;;
19038;SDS011;9652;49.014;12.052;2022-10-30T07:43:42;6.53;;;4.23;;
19038;SDS011;9652;49.014;12.052;2022-10-30T07:46:35;6.30;;;4.93;;
19038;SDS011;9652;49.014;12.052;2022-10-30T07:49:20;6.43;;;4.80;;
19038;SDS011;9652;49.014;12.052;2022-10-30T07:51:51;6.87;;;5.00;;
19038;SDS011;9652;49.014;12.052;2022-10-30T07:54:19;7.80;;;4.83;;
19038;SDS011;9652;49.014;12.052;2022-10-30T07:56:47;6.43;;;4.33;;
19038;SDS011;9652;49.014;12.052;2022-10-30T07:59:49;5.50;;;4.43;;
19038;SDS011;9652;49.014;12.052;2022-10-30T08:02:24;5.87;;;4.93;;
19038;SDS011;9652;49.014;12.052;2022-10-30T08:05:17;6.70;;;5.00;;
19038;SDS011;9652;49.014;12.052;2022-10-30T08:08:06;6.63;;;4.67;;
19038;SDS011;9652;49.014;12.052;2022-10-30T08:10:34;7.83;;;5.17;;
19038;SDS011;9652;49.014;12.052;2022-10-30T08:13:02;8.00;;;5.43;;
19038;SDS011;9652;49.014;12.052;2022-10-30T08:15:29;6.47;;;5.20;;
19038;SDS011;9652;49.014;12.052;2022-10-30T08:17:59;8.27;;;5.50;;
19038;SDS011;9652;49.014;12.052;2022-10-30T08:20:26;7.93;;;5.47;;
19038;SDS011;9652;49.014;12.052;2022-10-30T08:22:54;7.93;;;4.50;;
19038;SDS011;9652;49.014;12.052;2022-10-30T08:25:24;9.03;;;5.67;;
19038;SDS011;9652;49.014;12.052;2022-10-30T08:27:57;10.33;;;6.20;;
19038;SDS011;9652;49.014;12.052;2022-10-30T08:30:30;8.07;;;5.83;;
19038;SDS011;9652;49.014;12.052;2022-10-30T08:33:03;8.83;;;5.77;;
19038;SDS011;9652;49.014;12.052;2022-10-30T08:35:51;8.27;;;5.57;;
19038;SDS011;9652;49.014;12.052;2022-10-30T08:38:21;9.00;;;5.73;;
19038;SDS011;9652;49.014;12.052;2022-10-30T08:41:01;8.23;;;5.00;;
19038;SDS011;9652;49.014;12.052;2022-10-30T08:43:30;9.27;;;5.53;;
19038;SDS011;9652;49.014;12.052;2022-10-30T08:45:58;9.00;;;5.30;;
19038;SDS011;9652;49.014;12.052;2022-10-30T08:48:28;8.87;;;5.83;;
19038;SDS011;9652;49.014;12.052;2022-10-30T08:50:56;10.37;;;5.57;;
19038;SDS011;9652;49.014;12.052;2022-10-30T08:53:30;12.60;;;6.57;;
19038;SDS011;9652;49.014;12.052;2022-10-30T08:55:59;7.00;;;5.00;;
19038;SDS011;9652;49.014;12.052;2022-10-30T08:58:40;10.13;;;4.87;;
19038;SDS011;9652;49.014;12.052;2022-10-30T09:01:08;6.23;;;5.13;;
19038;SDS011;9652;49.014;12.052;2022-10-30T09:04:06;6.40;;;4.93;;
19038;SDS011;9652;49.014;12.052;2022-10-30T09:07:03;8.17;;;5.40;;
19038;SDS011;9652;49.014;12.052;2022-10-30T09:09:30;8.57;;;5.50;;
19038;SDS011;9652;49.014;12.052;2022-10-30T09:12:00;10.03;;;5.43;;
19038;SDS011;9652;49.014;12.052;2022-10-30T09:14:33;7.77;;;5.23;;
19038;SDS011;9652;49.014;12.052;2022-10-30T09:17:00;10.10;;;5.70;;
19038;SDS011;9652;49.014;12.052;2022-10-30T09:19:30;8.07;;;5.07;;
19038;SDS011;9652;49.014;12.052;2022-10-30T09:21:57;7.80;;;5.47;;
19038;SDS011;9652;49.014;12.052;2022-10-30T09:24:24;8.40;;;4.90;;
19038;SDS011;9652;49.014;12.052;2022-10-30T09:26:53;10.50;;;5.90;;
19038;SDS011;9652;49.014;12.052;2022-10-30T09:29:23;9.07;;;5.37;;
19038;SDS011;9652;49.014;12.052;2022-10-30T09:32:13;9.70;;;5.50;;
19038;SDS011;9652;49.014;12.052;2022-10-30T09:34:51;7.70;;;5.10;;
19038;SDS011;9652;49.014;12.052;2022-10-30T09:37:21;7.40;;;4.40;;
19038;SDS011;9652;49.014;12.052;2022-10-30T09:39:54;8.00;;;5.03;;
19038;SDS011;9652;49.014;12.052;2022-10-30T09:48:33;10.53;;;4.97;;
19038;SDS011;9652;49.014;12.052;2022-10-30T09:54:39;5.67;;;4.57;;
19038;SDS011;9652;49.014;12.052;2022-10-30T09:57:23;6.30;;;4.40;;
19038;SDS011;9652;49.014;12.052;2022-10-30T10:00:02;9.30;;;4.80;;
19038;SDS011;9652;49.014;12.052;2022-10-30T10:02:44;9.33;;;5.00;;
19038;SDS011;9652;49.014;12.052;2022-10-30T10:05:39;8.47;;;4.90;;
19038;SDS011;9652;49.014;12.052;2022-10-30T10:08:35;8.10;;;4.90;;
19038;SDS011;9652;49.014;12.052;2022-10-30T10:11:26;8.33;;;4.93;;
19038;SDS011;9652;49.014;12.052;2022-10-30T10:14:02;11.90;;;4.77;;
19038;SDS011;9652;49.014;12.052;2022-10-30T10:16:35;9.27;;;4.83;;
19038;SDS011;9652;49.014;12.052;2022-10-30T10:19:08;6.40;;;4.43;;
19038;SDS011;9652;49.014;12.052;2022-10-30T10:21:42;5.20;;;4.10;;
19038;SDS011;9652;49.014;12.052;2022-10-30T10:24:17;6.63;;;4.20;;
19038;SDS011;9652;49.014;12.052;2022-10-30T10:26:52;6.60;;;4.87;;
19038;SDS011;9652;49.014;12.052;2022-10-30T10:29:28;8.60;;;5.40;;
19038;SDS011;9652;49.014;12.052;2022-10-30T10:32:14;8.13;;;4.97;;
19038;SDS011;9652;49.014;12.052;2022-10-30T10:35:10;6.27;;;4.23;;
19038;SDS011;9652;49.014;12.052;2022-10-30T10:38:13;9.63;;;4.20;;
19038;SDS011;9652;49.014;12.052;2022-10-30T10:40:57;8.43;;;4.93;;
19038;SDS011;9652;49.014;12.052;2022-10-30T10:43:42;6.33;;;4.73;;
19038;SDS011;9652;49.014;12.052;2022-10-30T10:46:33;9.83;;;4.23;;
19038;SDS011;9652;49.014;12.052;2022-10-30T10:49:21;7.17;;;4.60;;
19038;SDS011;9652;49.014;12.052;2022-10-30T10:52:03;7.33;;;4.30;;
19038;SDS011;9652;49.014;12.052;2022-10-30T10:54:37;7.63;;;4.37;;
19038;SDS011;9652;49.014;12.052;2022-10-30T10:57:12;7.83;;;4.50;;
19038;SDS011;9652;49.014;12.052;2022-10-30T10:59:50;9.70;;;4.93;;
19038;SDS011;9652;49.014;12.052;2022-10-30T11:02:34;11.30;;;4.47;;
19038;SDS011;9652;49.014;12.052;2022-10-30T11:05:07;7.07;;;4.00;;
19038;SDS011;9652;49.014;12.052;2022-10-30T11:07:45;7.77;;;4.33;;
19038;SDS011;9652;49.014;12.052;2022-10-30T11:10:15;5.57;;;4.00;;
19038;SDS011;9652;49.014;12.052;2022-10-30T11:12:46;6.60;;;3.90;;
19038;SDS011;9652;49.014;12.052;2022-10-30T11:15:21;6.93;;;4.03;;
19038;SDS011;9652;49.014;12.052;2022-10-30T11:18:02;9.07;;;4.50;;
19038;SDS011;9652;49.014;12.052;2022-10-30T11:20:36;5.40;;;3.80;;
19038;SDS011;9652;49.014;12.052;2022-10-30T11:25:58;13.73;;;4.23;;
19038;SDS011;9652;49.014;12.052;2022-10-30T11:28:33;6.90;;;3.77;;
19038;SDS011;9652;49.014;12.052;2022-10-30T11:31:19;6.20;;;4.03;;
19038;SDS011;9652;49.014;12.052;2022-10-30T11:33:48;6.53;;;4.27;;
19038;SDS011;9652;49.014;12.052;2022-10-30T11:36:17;6.87;;;3.93;;
19038;SDS011;9652;49.014;12.052;2022-10-30T11:38:48;9.07;;;4.07;;
19038;SDS011;9652;49.014;12.052;2022-10-30T11:41:16;6.30;;;3.93;;
19038;SDS011;9652;49.014;12.052;2022-10-30T11:43:45;8.03;;;4.17;;
19038;SDS011;9652;49.014;12.052;2022-10-30T11:46:17;6.07;;;4.27;;
19038;SDS011;9652;49.014;12.052;2022-10-30T11:48:48;6.77;;;4.00;;
19038;SDS011;9652;49.014;12.052;2022-10-30T11:51:33;7.70;;;4.30;;
19038;SDS011;9652;49.014;12.052;2022-10-30T11:54:04;8.93;;;4.50;;
19038;SDS011;9652;49.014;12.052;2022-10-30T11:56:45;7.20;;;4.37;;
19038;SDS011;9652;49.014;12.052;2022-10-30T11:59:16;6.90;;;4.00;;
19038;SDS011;9652;49.014;12.052;2022-10-30T12:04:44;7.10;;;3.70;;
19038;SDS011;9652;49.014;12.052;2022-10-30T12:07:16;9.57;;;3.63;;
19038;SDS011;9652;49.014;12.052;2022-10-30T12:09:51;6.43;;;3.77;;
19038;SDS011;9652;49.014;12.052;2022-10-30T12:12:22;7.30;;;3.67;;
19038;SDS011;9652;49.014;12.052;2022-10-30T12:14:54;8.73;;;4.33;;
19038;SDS011;9652;49.014;12.052;2022-10-30T12:17:33;8.70;;;3.70;;
19038;SDS011;9652;49.014;12.052;2022-10-30T12:20:03;6.70;;;4.03;;
19038;SDS011;9652;49.014;12.052;2022-10-30T12:22:33;7.00;;;3.87;;
19038;SDS011;9652;49.014;12.052;2022-10-30T12:25:01;6.77;;;3.70;;
19038;SDS011;9652;49.014;12.052;2022-10-30T12:27:34;9.37;;;4.00;;
19038;SDS011;9652;49.014;12.052;2022-10-30T12:30:06;8.83;;;3.97;;
19038;SDS011;9652;49.014;12.052;2022-10-30T12:32:45;10.30;;;4.13;;
19038;SDS011;9652;49.014;12.052;2022-10-30T12:35:23;6.47;;;3.70;;
19038;SDS011;9652;49.014;12.052;2022-10-30T12:38:05;5.53;;;3.47;;
19038;SDS011;9652;49.014;12.052;2022-10-30T12:40:41;8.07;;;3.40;;
19038;SDS011;9652;49.014;12.052;2022-10-30T12:43:25;8.37;;;4.00;;
19038;SDS011;9652;49.014;12.052;2022-10-30T12:45:55;6.87;;;3.83;;
19038;SDS011;9652;49.014;12.052;2022-10-30T12:48:35;5.97;;;3.63;;
19038;SDS011;9652;49.014;12.052;2022-10-30T12:51:15;7.93;;;3.83;;
19038;SDS011;9652;49.014;12.052;2022-10-30T12:53:52;7.93;;;4.00;;
19038;SDS011;9652;49.014;12.052;2022-10-30T12:56:29;6.00;;;4.17;;
19038;SDS011;9652;49.014;12.052;2022-10-30T12:59:10;6.87;;;3.80;;
19038;SDS011;9652;49.014;12.052;2022-10-30T13:01:56;5.20;;;3.53;;
19038;SDS011;9652;49.014;12.052;2022-10-30T13:04:37;9.40;;;3.47;;
19038;SDS011;9652;49.014;12.052;2022-10-30T13:07:10;6.77;;;3.57;;
19038;SDS011;9652;49.014;12.052;2022-10-30T13:09:48;8.47;;;3.87;;
19038;SDS011;9652;49.014;12.052;2022-10-30T13:12:31;8.13;;;4.00;;
19038;SDS011;9652;49.014;12.052;2022-10-30T13:15:03;6.07;;;3.37;;
19038;SDS011;9652;49.014;12.052;2022-10-30T13:17:40;8.07;;;4.23;;
19038;SDS011;9652;49.014;12.052;2022-10-30T13:20:09;11.23;;;3.63;;
19038;SDS011;9652;49.014;12.052;2022-10-30T13:22:41;7.37;;;3.80;;
19038;SDS011;9652;49.014;12.052;2022-10-30T13:25:15;8.80;;;3.77;;
19038;SDS011;9652;49.014;12.052;2022-10-30T13:27:54;8.13;;;3.50;;
19038;SDS011;9652;49.014;12.052;2022-10-30T13:30:31;6.93;;;4.03;;
19038;SDS011;9652;49.014;12.052;2022-10-30T13:33:08;8.13;;;3.30;;
19038;SDS011;9652;49.014;12.052;2022-10-30T13:35:47;8.33;;;4.30;;
19038;SDS011;9652;49.014;12.052;2022-10-30T13:38:34;7.37;;;3.60;;
19038;SDS011;9652;49.014;12.052;2022-10-30T13:41:13;8.60;;;3.43;;
19038;SDS011;9652;49.014;12.052;2022-10-30T13:43:53;5.57;;;3.00;;
19038;SDS011;9652;49.014;12.052;2022-10-30T13:46:38;5.43;;;3.40;;
19038;SDS011;9652;49.014;12.052;2022-10-30T13:49:34;5.83;;;3.30;;
19038;SDS011;9652;49.014;12.052;2022-10-30T13:52:24;6.97;;;3.53;;
19038;SDS011;9652;49.014;12.052;2022-10-30T13:54:58;7.63;;;3.73;;
19038;SDS011;9652;49.014;12.052;2022-10-30T13:57:31;5.50;;;2.80;;
19038;SDS011;9652;49.014;12.052;2022-10-30T14:00:10;7.33;;;3.87;;
19038;SDS011;9652;49.014;12.052;2022-10-30T14:02:47;9.37;;;3.77;;
19038;SDS011;9652;49.014;12.052;2022-10-30T14:05:41;8.50;;;3.70;;
19038;SDS011;9652;49.014;12.052;2022-10-30T14:08:17;5.50;;;3.47;;
19038;SDS011;9652;49.014;12.052;2022-10-30T14:10:56;4.10;;;3.00;;
19038;SDS011;9652;49.014;12.052;2022-10-30T14:13:25;9.60;;;3.20;;
19038;SDS011;9652;49.014;12.052;2022-10-30T14:15:54;8.30;;;3.27;;
19038;SDS011;9652;49.014;12.052;2022-10-30T14:18:27;9.03;;;3.57;;
19038;SDS011;9652;49.014;12.052;2022-10-30T14:24:04;9.40;;;3.67;;
19038;SDS011;9652;49.014;12.052;2022-10-30T14:26:40;9.30;;;3.67;;
19038;SDS011;9652;49.014;12.052;2022-10-30T14:29:35;7.27;;;3.57;;
19038;SDS011;9652;49.014;12.052;2022-10-30T14:38:24;7.07;;;3.43;;
19038;SDS011;9652;49.014;12.052;2022-10-30T14:41:02;11.17;;;3.13;;
19038;SDS011;9652;49.014;12.052;2022-10-30T14:50:33;4.40;;;2.63;;
19038;SDS011;9652;49.014;12.052;2022-10-30T14:53:29;4.67;;;2.57;;
19038;SDS011;9652;49.014;12.052;2022-10-30T14:56:18;5.33;;;2.50;;
19038;SDS011;9652;49.014;12.052;2022-10-30T14:59:07;3.70;;;2.40;;
19038;SDS011;9652;49.014;12.052;2022-10-30T15:01:48;6.40;;;3.63;;
19038;SDS011;9652;49.014;12.052;2022-10-30T15:04:45;6.27;;;2.83;;
19038;SDS011;9652;49.014;12.052;2022-10-30T15:07:35;7.23;;;3.13;;
19038;SDS011;9652;49.014;12.052;2022-10-30T15:10:15;4.87;;;3.20;;
19038;SDS011;9652;49.014;12.052;2022-10-30T15:12:54;6.03;;;3.47;;
19038;SDS011;9652;49.014;12.052;2022-10-30T15:15:31;5.67;;;3.57;;
19038;SDS011;9652;49.014;12.052;2022-10-30T15:18:00;7.27;;;3.93;;
19038;SDS011;9652;49.014;12.052;2022-10-30T15:20:34;9.53;;;3.60;;
19038;SDS011;9652;49.014;12.052;2022-10-30T15:23:06;8.50;;;3.70;;
19038;SDS011;9652;49.014;12.052;2022-10-30T15:25:45;5.17;;;3.33;;
19038;SDS011;9652;49.014;12.052;2022-10-30T15:28:15;7.27;;;3.63;;
19038;SDS011;9652;49.014;12.052;2022-10-30T15:30:59;7.50;;;4.00;;
19038;SDS011;9652;49.014;12.052;2022-10-30T15:33:29;9.70;;;4.43;;
19038;SDS011;9652;49.014;12.052;2022-10-30T15:35:59;9.83;;;4.43;;
19038;SDS011;9652;49.014;12.052;2022-10-30T15:38:26;9.17;;;4.43;;
19038;SDS011;9652;49.014;12.052;2022-10-30T15:40:56;13.40;;;5.80;;
19038;SDS011;9652;49.014;12.052;2022-10-30T15:43:28;15.73;;;7.27;;
19038;SDS011;9652;49.014;12.052;2022-10-30T15:46:00;11.50;;;5.97;;
19038;SDS011;9652;49.014;12.052;2022-10-30T15:48:34;15.37;;;6.13;;
19038;SDS011;9652;49.014;12.052;2022-10-30T15:51:06;10.40;;;6.07;;
19038;SDS011;9652;49.014;12.052;2022-10-30T15:53:42;9.10;;;5.50;;
19038;SDS011;9652;49.014;12.052;2022-10-30T15:56:15;12.90;;;6.27;;
19038;SDS011;9652;49.014;12.052;2022-10-30T15:58:48;12.27;;;5.80;;
19038;SDS011;9652;49.014;12.052;2022-10-30T16:01:25;10.97;;;6.17;;
19038;SDS011;9652;49.014;12.052;2022-10-30T16:03:56;11.80;;;6.23;;
19038;SDS011;9652;49.014;12.052;2022-10-30T16:06:24;12.63;;;6.40;;